Time;durP1;ratioP1;P1;durP2;ratioP2;P2;SDS_P1;SDS_P2;PMS_P1;PMS_P2;Temp;Humidity;BMP_temperature;BMP_pressure;BME280_temperature;BME280_humidity;BME280_pressure;Samples;Min_cycle;Max_cycle;Signal;HPM_P1;HPM_P2
2021/11/11 00:00:16;;;;;;;33.60;20.17;;;;;;;2.72;100.00;101211.53;5029658;28;20046;-54
2021/11/11 00:02:43;;;;;;;31.98;19.15;;;;;;;2.69;100.00;101201.09;5030645;28;20042;-53
2021/11/11 00:05:10;;;;;;;32.83;19.40;;;;;;;2.68;100.00;101201.94;5033081;28;20546;-53
2021/11/11 00:07:38;;;;;;;31.63;19.10;;;;;;;2.57;100.00;101182.81;5038007;28;20067;-54
2021/11/11 00:10:07;;;;;;;27.17;17.80;;;;;;;2.65;100.00;101204.59;5027461;28;20045;-53
2021/11/11 00:12:34;;;;;;;31.98;18.45;;;;;;;2.57;100.00;101207.22;5031181;28;20463;-53
2021/11/11 00:15:04;;;;;;;29.95;18.50;;;;;;;2.49;100.00;101211.59;5049007;28;20044;-53
2021/11/11 00:17:30;;;;;;;31.25;19.27;;;;;;;2.46;100.00;101211.59;5033403;28;20127;-54
2021/11/11 00:19:57;;;;;;;32.92;18.60;;;;;;;2.39;100.00;101199.38;5035479;28;20048;-53
2021/11/11 00:22:23;;;;;;;29.88;19.40;;;;;;;2.37;100.00;101199.38;5035394;28;20052;-53
2021/11/11 00:24:51;;;;;;;30.67;19.08;;;;;;;2.36;100.00;101202.88;5035834;28;20364;-52
2021/11/11 00:27:17;;;;;;;29.73;18.45;;;;;;;2.37;100.00;101209.84;5034304;28;20045;-53
2021/11/11 00:29:44;;;;;;;29.95;19.23;;;;;;;2.35;100.00;101198.53;5027164;28;20132;-52
2021/11/11 00:32:11;;;;;;;29.90;18.58;;;;;;;2.37;100.00;101209.84;5013332;28;20051;-51
2021/11/11 00:34:38;;;;;;;27.92;18.58;;;;;;;2.35;100.00;101213.34;5036354;28;20057;-51
2021/11/11 00:37:04;;;;;;;30.83;18.75;;;;;;;2.33;100.00;101215.09;5036839;28;20057;-53
2021/11/11 00:39:31;;;;;;;31.45;17.80;;;;;;;2.29;100.00;101201.16;5010747;28;20037;-52
2021/11/11 00:41:57;;;;;;;27.45;17.50;;;;;;;2.26;100.00;101203.75;5031593;28;20107;-51
2021/11/11 00:44:24;;;;;;;30.00;18.40;;;;;;;2.22;100.00;101204.63;5036715;28;20490;-58
2021/11/11 00:46:50;;;;;;;30.35;19.00;;;;;;;2.19;100.00;101207.25;5041875;28;20048;-52
2021/11/11 00:49:17;;;;;;;31.20;17.70;;;;;;;2.19;100.00;101204.66;5032081;28;20054;-52
2021/11/11 00:51:44;;;;;;;27.83;17.83;;;;;;;2.20;100.00;101198.56;5032832;28;20115;-53
2021/11/11 00:54:10;;;;;;;27.77;17.95;;;;;;;2.22;100.00;101204.63;5042154;28;20045;-52
2021/11/11 00:56:37;;;;;;;26.80;17.27;;;;;;;2.14;100.00;101189.81;5036318;28;20049;-52
2021/11/11 00:59:03;;;;;;;34.95;19.25;;;;;;;2.21;100.00;101208.09;5044986;28;20053;-51
2021/11/11 01:01:31;;;;;;;30.55;18.92;;;;;;;2.22;100.00;101206.34;5031137;28;20533;-53
2021/11/11 01:03:59;;;;;;;30.38;17.98;;;;;;;2.25;100.00;101204.63;5023492;28;20049;-50
2021/11/11 01:06:26;;;;;;;29.70;18.10;;;;;;;2.25;100.00;101207.25;5031488;28;20041;-55
2021/11/11 01:08:54;;;;;;;30.63;18.30;;;;;;;2.24;100.00;101209.84;5030001;28;20041;-52
2021/11/11 01:11:20;;;;;;;30.30;18.65;;;;;;;2.21;100.00;101221.16;5032056;28;20045;-51
2021/11/11 01:14:07;;;;;;;31.70;18.25;;;;;;;2.17;100.00;101216.84;5031254;28;20405;-52
2021/11/11 01:16:33;;;;;;;27.90;17.60;;;;;;;2.08;100.00;101216.81;5035010;28;20494;-54
2021/11/11 01:19:00;;;;;;;28.88;17.60;;;;;;;2.00;100.00;101219.44;5030777;28;20076;-51
2021/11/11 01:21:26;;;;;;;26.38;17.23;;;;;;;1.93;100.00;101214.19;5031379;28;20515;-52
2021/11/11 01:23:54;;;;;;;28.10;17.27;;;;;;;1.88;100.00;101213.31;5035161;28;20451;-53
2021/11/11 01:26:21;;;;;;;24.70;17.02;;;;;;;1.70;99.79;101190.66;5039207;28;20045;-52
2021/11/11 01:28:48;;;;;;;26.23;17.50;;;;;;;1.77;100.00;101228.97;5045987;28;20056;-53
2021/11/11 01:31:14;;;;;;;27.40;17.35;;;;;;;1.74;100.00;101223.72;5033740;28;20049;-50
2021/11/11 01:33:41;;;;;;;27.42;16.95;;;;;;;1.69;99.42;101215.91;5032721;28;20048;-52
2021/11/11 01:36:07;;;;;;;30.33;17.27;;;;;;;1.62;99.40;101206.31;5037835;28;20061;-53
2021/11/11 01:38:33;;;;;;;27.20;16.40;;;;;;;1.54;100.00;101205.44;5034444;28;20058;-51
2021/11/11 01:41:00;;;;;;;29.75;17.38;;;;;;;1.51;99.75;101204.53;5032560;28;20041;-53
2021/11/11 01:43:26;;;;;;;25.73;16.17;;;;;;;1.45;100.00;101192.31;5038889;28;20044;-53
2021/11/11 01:45:53;;;;;;;23.52;16.35;;;;;;;1.44;100.00;101201.03;5032268;28;20041;-52
2021/11/11 01:48:20;;;;;;;29.08;17.55;;;;;;;1.41;100.00;101198.44;5036986;28;20053;-51
2021/11/11 01:50:46;;;;;;;25.40;16.52;;;;;;;1.40;100.00;101194.94;5027279;28;20491;-53
2021/11/11 01:53:14;;;;;;;27.83;17.45;;;;;;;1.38;100.00;101196.69;5035027;28;20044;-51
2021/11/11 01:55:43;;;;;;;24.88;16.73;;;;;;;1.38;100.00;101185.38;5033837;28;20041;-53
2021/11/11 01:58:10;;;;;;;25.23;16.65;;;;;;;1.38;100.00;101185.38;5027681;28;20049;-52
2021/11/11 02:00:47;;;;;;;25.35;16.85;;;;;;;1.31;99.80;101178.38;5029251;28;20049;-53
2021/11/11 02:03:14;;;;;;;28.08;17.05;;;;;;;1.22;99.75;101179.22;5027442;28;20057;-51
2021/11/11 02:05:43;;;;;;;26.02;17.10;;;;;;;1.19;99.74;101186.16;5034127;28;20057;-52
2021/11/11 02:08:10;;;;;;;24.23;16.52;;;;;;;1.13;99.87;101183.50;5031066;28;20049;-51
2021/11/11 02:10:37;;;;;;;24.73;16.80;;;;;;;1.11;99.76;101190.47;5027194;28;20069;-52
2021/11/11 02:13:05;;;;;;;25.90;16.60;;;;;;;1.07;99.29;101184.38;5040110;28;20526;-52
2021/11/11 02:15:32;;;;;;;25.17;15.93;;;;;;;0.98;99.76;101179.97;5029917;28;20045;-52
2021/11/11 02:17:59;;;;;;;26.63;16.77;;;;;;;0.98;100.00;101186.94;5033078;28;20140;-52
2021/11/11 02:20:31;;;;;;;27.60;17.25;;;;;;;0.93;99.85;101181.72;5026621;28;20083;-53
2021/11/11 02:23:00;;;;;;;24.80;17.23;;;;;;;0.91;100.00;101172.13;5028319;28;20057;-52
2021/11/11 02:25:28;;;;;;;24.50;16.45;;;;;;;0.89;100.00;101169.53;5029454;28;20065;-53
2021/11/11 02:28:02;;;;;;;23.42;16.42;;;;;;;0.88;100.00;101173.00;5037408;28;20041;-54
2021/11/11 02:30:32;;;;;;;23.98;16.45;;;;;;;0.84;100.00;101167.75;5027920;28;20057;-51
2021/11/11 02:32:59;;;;;;;23.75;16.50;;;;;;;0.81;100.00;101171.19;5028686;28;20045;-53
2021/11/11 02:35:27;;;;;;;23.63;15.95;;;;;;;0.80;100.00;101176.41;5031258;28;20046;-52
2021/11/11 02:37:53;;;;;;;24.73;15.98;;;;;;;0.77;100.00;101187.72;5028326;28;20041;-52
2021/11/11 02:40:25;;;;;;;22.75;16.13;;;;;;;0.74;100.00;101186.81;5030614;28;20049;-52
2021/11/11 02:42:52;;;;;;;24.75;16.20;;;;;;;0.66;100.00;101181.56;5031943;28;20060;-52
2021/11/11 02:45:31;;;;;;;24.27;16.63;;;;;;;0.72;100.00;101193.75;5032644;28;20056;-53
2021/11/11 02:47:59;;;;;;;28.20;16.38;;;;;;;0.70;100.00;101198.97;5037190;28;20041;-51
2021/11/11 02:50:28;;;;;;;25.33;16.58;;;;;;;0.69;100.00;101202.44;5030169;28;20044;-53
2021/11/11 02:52:56;;;;;;;26.52;16.23;;;;;;;0.71;100.00;101198.09;5030986;28;20166;-52
2021/11/11 02:55:23;;;;;;;24.95;16.98;;;;;;;0.71;100.00;101195.50;5035294;28;20103;-53
2021/11/11 02:57:52;;;;;;;26.75;17.55;;;;;;;0.73;100.00;101191.16;5032347;28;20068;-53
2021/11/11 03:00:29;;;;;;;26.73;17.40;;;;;;;0.73;100.00;101191.16;5039311;28;20053;-54
2021/11/11 03:02:56;;;;;;;26.17;17.35;;;;;;;0.76;100.00;101185.97;5029545;28;20114;-52
2021/11/11 03:05:28;;;;;;;25.60;17.10;;;;;;;0.75;100.00;101185.97;5041841;28;20048;-56
2021/11/11 03:07:55;;;;;;;24.00;16.35;;;;;;;0.74;100.00;101179.88;5035722;28;20045;-52
2021/11/11 03:10:25;;;;;;;24.83;16.27;;;;;;;0.73;100.00;101177.25;5032002;28;20060;-52
2021/11/11 03:12:53;;;;;;;24.60;16.52;;;;;;;0.69;100.00;101179.84;5030660;28;20123;-52
2021/11/11 03:15:21;;;;;;;27.63;16.60;;;;;;;0.66;100.00;101166.78;5040727;28;20057;-50
2021/11/11 03:17:48;;;;;;;22.60;15.68;;;;;;;0.67;100.00;101178.97;5035443;28;20041;-51
2021/11/11 03:20:16;;;;;;;22.85;15.45;;;;;;;0.66;100.00;101186.75;5035816;28;20072;-53
2021/11/11 03:22:44;;;;;;;26.52;16.58;;;;;;;0.64;100.00;101178.06;5033156;28;20052;-53
2021/11/11 03:25:12;;;;;;;25.70;16.00;;;;;;;0.67;100.00;101180.69;5033734;28;20454;-51
2021/11/11 03:27:39;;;;;;;25.63;16.45;;;;;;;0.68;100.00;101175.50;5039158;28;20037;-51
2021/11/11 03:30:12;;;;;;;25.25;16.25;;;;;;;0.60;100.00;101161.56;5038061;28;20097;-53
2021/11/11 03:32:40;;;;;;;23.95;16.15;;;;;;;0.72;100.00;101173.78;5028794;28;20488;-53
2021/11/11 03:35:08;;;;;;;22.63;15.90;;;;;;;0.76;100.00;101183.38;5035591;28;20052;-53
2021/11/11 03:37:35;;;;;;;22.50;15.95;;;;;;;0.76;100.00;101183.38;5032758;28;20456;-52
2021/11/11 03:40:06;;;;;;;22.52;15.85;;;;;;;0.73;100.00;101174.66;5031285;28;20036;-52
2021/11/11 03:42:33;;;;;;;22.48;15.02;;;;;;;0.69;100.00;101176.34;5026384;28;20802;-52
2021/11/11 03:44:59;;;;;;;22.70;15.05;;;;;;;0.71;100.00;101185.06;5033204;28;20048;-53
2021/11/11 03:47:26;;;;;;;22.67;14.38;;;;;;;0.69;100.00;101202.44;5033768;28;20054;-52
2021/11/11 03:49:52;;;;;;;20.30;14.55;;;;;;;0.65;100.00;101200.66;5034293;28;20056;-52
2021/11/11 03:52:19;;;;;;;22.42;14.25;;;;;;;0.61;100.00;101197.19;5029810;28;20122;-52
2021/11/11 03:54:48;;;;;;;21.05;14.85;;;;;;;0.58;100.00;101191.06;5038913;28;20112;-53
2021/11/11 03:57:14;;;;;;;22.27;14.48;;;;;;;0.53;100.00;101197.97;5035166;28;20049;-55
2021/11/11 03:59:41;;;;;;;18.85;13.23;;;;;;;0.35;99.92;101170.94;5028842;28;20049;-52
2021/11/11 04:02:08;;;;;;;21.20;14.18;;;;;;;0.40;99.75;101191.81;5025937;28;20053;-52
2021/11/11 04:04:35;;;;;;;17.13;13.48;;;;;;;0.42;99.81;101194.44;5037821;28;20041;-55
2021/11/11 04:07:02;;;;;;;20.23;13.95;;;;;;;0.41;99.25;101200.50;5033939;28;20423;-53
2021/11/11 04:09:28;;;;;;;19.65;13.48;;;;;;;0.38;99.95;101195.28;5034397;28;20049;-52
2021/11/11 04:11:55;;;;;;;21.05;14.63;;;;;;;0.35;99.56;101191.78;5028570;28;20045;-52
2021/11/11 04:14:21;;;;;;;22.17;14.77;;;;;;;0.34;100.00;101186.56;5037889;28;20525;-53
2021/11/11 04:16:47;;;;;;;20.98;14.35;;;;;;;0.33;100.00;101182.19;5040218;28;20452;-51
2021/11/11 04:19:14;;;;;;;20.92;14.45;;;;;;;0.33;100.00;101179.59;5029323;28;20057;-53
2021/11/11 04:21:41;;;;;;;23.40;14.93;;;;;;;0.31;100.00;101178.75;5027888;28;20211;-53
2021/11/11 04:24:07;;;;;;;20.50;14.68;;;;;;;0.28;100.00;101178.72;5034119;28;20076;-53
2021/11/11 04:26:40;;;;;;;22.00;14.55;;;;;;;0.28;100.00;101190.00;5033223;28;20064;-52
2021/11/11 04:29:20;;;;;;;23.02;14.70;;;;;;;0.28;100.00;101179.59;5032202;28;20049;-52
2021/11/11 04:31:58;;;;;;;24.55;14.30;;;;;;;0.11;100.00;101155.16;5027248;28;20049;-55
2021/11/11 04:34:26;;;;;;;26.88;15.23;;;;;;;0.17;100.00;101165.59;5014110;28;20049;-53
2021/11/11 04:52:51;;;;;;;23.25;15.65;;;;;;;0.37;100.00;101168.34;5027470;28;20051;-53
2021/11/11 05:03:34;;;;;;;24.92;16.17;;;;;;;0.43;100.00;101185.75;5027843;28;20144;-52
2021/11/11 05:06:02;;;;;;;23.80;15.70;;;;;;;0.44;100.00;101190.13;5032285;28;20045;-52
2021/11/11 05:08:30;;;;;;;23.95;15.60;;;;;;;0.43;100.00;101183.16;5031170;28;20050;-51
2021/11/11 05:10:57;;;;;;;27.17;16.38;;;;;;;0.46;100.00;101186.66;5031286;28;20049;-51
2021/11/11 05:13:25;;;;;;;28.00;16.00;;;;;;;0.38;100.00;101167.47;5028770;28;20136;-50
2021/11/11 05:15:51;;;;;;;23.65;15.50;;;;;;;0.53;100.00;101177.13;5032502;28;20056;-52
2021/11/11 05:18:18;;;;;;;26.17;16.15;;;;;;;0.54;100.00;101184.09;5031755;28;20396;-52
2021/11/11 05:20:44;;;;;;;27.48;16.70;;;;;;;0.54;100.00;101176.28;5035586;28;20078;-52
2021/11/11 05:23:11;;;;;;;27.63;16.20;;;;;;;0.58;100.00;101178.03;5030891;28;20502;-52
2021/11/11 05:25:38;;;;;;;26.05;16.20;;;;;;;0.57;100.00;101176.28;5029529;28;20594;-50
2021/11/11 05:28:05;;;;;;;29.75;16.52;;;;;;;0.59;100.00;101174.56;5036892;28;20037;-51
2021/11/11 05:30:32;;;;;;;24.05;15.55;;;;;;;0.56;100.00;101164.13;5033320;28;20045;-51
2021/11/11 05:32:58;;;;;;;22.33;15.65;;;;;;;0.59;100.00;101165.03;5029295;28;20045;-52
2021/11/11 05:35:27;;;;;;;25.27;16.52;;;;;;;0.63;100.00;101182.41;5033318;28;20054;-52
2021/11/11 05:37:54;;;;;;;24.75;15.80;;;;;;;0.59;100.00;101174.56;5035360;28;20200;-51
2021/11/11 05:40:21;;;;;;;26.00;16.70;;;;;;;0.56;100.00;101184.97;5029341;28;20087;-53
2021/11/11 05:42:49;;;;;;;27.55;15.77;;;;;;;0.52;100.00;101181.47;5031541;28;20040;-53
2021/11/11 05:45:17;;;;;;;21.63;14.73;;;;;;;0.53;100.00;101188.44;5035099;28;20518;-52
2021/11/11 05:47:44;;;;;;;23.13;15.13;;;;;;;0.54;100.00;101195.38;5036131;28;20040;-54
2021/11/11 05:50:13;;;;;;;22.80;14.68;;;;;;;0.54;100.00;101199.72;5020497;28;20049;-51
2021/11/11 05:52:39;;;;;;;25.38;15.93;;;;;;;0.57;100.00;101199.75;5028825;28;20056;-54
2021/11/11 05:55:07;;;;;;;24.20;14.88;;;;;;;0.61;100.00;101204.13;5033428;28;20045;-52
2021/11/11 05:57:34;;;;;;;23.67;15.52;;;;;;;0.61;100.00;101207.59;5034856;28;20037;-53
2021/11/11 06:00:01;;;;;;;23.52;15.00;;;;;;;0.61;100.00;101219.78;5033626;28;20506;-52
2021/11/11 06:02:27;;;;;;;24.38;15.52;;;;;;;0.61;100.00;101211.94;5027541;28;20048;-55
2021/11/11 06:04:53;;;;;;;26.02;15.75;;;;;;;0.63;100.00;101223.25;5034171;28;20045;-53
2021/11/11 06:07:20;;;;;;;24.20;16.10;;;;;;;0.64;100.00;101228.47;5032635;28;20057;-52
2021/11/11 06:09:46;;;;;;;23.95;15.70;;;;;;;0.68;100.00;101232.84;5032409;28;20384;-51
2021/11/11 06:12:13;;;;;;;24.17;15.07;;;;;;;0.70;100.00;101232.84;5031136;28;20451;-52
2021/11/11 06:14:39;;;;;;;22.80;15.52;;;;;;;0.66;100.00;101231.94;5032451;28;20384;-51
2021/11/11 06:17:06;;;;;;;24.45;15.05;;;;;;;0.64;100.00;101245.81;5037912;28;20524;-55
2021/11/11 06:19:37;;;;;;;25.13;15.48;;;;;;;0.68;100.00;101237.16;5033871;28;20045;-51
2021/11/11 06:22:05;;;;;;;27.08;16.55;;;;;;;0.74;100.00;101242.44;5034856;28;20049;-53
2021/11/11 06:24:31;;;;;;;29.48;17.83;;;;;;;0.84;100.00;101228.59;5032363;28;20076;-53
2021/11/11 06:26:58;;;;;;;30.55;18.30;;;;;;;0.95;100.00;101229.50;5030324;28;20041;-53
2021/11/11 06:29:25;;;;;;;30.35;17.98;;;;;;;0.99;100.00;101220.84;5029658;28;20050;-51
2021/11/11 06:31:51;;;;;;;29.88;17.85;;;;;;;1.05;100.00;101230.44;5028749;28;20521;-51
2021/11/11 06:34:24;;;;;;;33.53;19.63;;;;;;;1.08;100.00;101234.81;5022660;28;20050;-54
2021/11/11 06:36:50;;;;;;;31.63;18.98;;;;;;;1.12;100.00;101234.81;5010324;28;20364;-53
2021/11/11 06:39:17;;;;;;;36.17;18.77;;;;;;;1.14;100.00;101230.47;5017452;28;20087;-52
2021/11/11 06:41:44;;;;;;;33.53;18.60;;;;;;;1.20;100.00;101242.69;5029090;28;20050;-51
2021/11/11 06:44:10;;;;;;;30.17;17.65;;;;;;;1.20;100.00;101240.09;5012327;28;20053;-52
2021/11/11 06:46:38;;;;;;;30.05;17.42;;;;;;;1.21;100.00;101249.66;5013965;28;20042;-52
2021/11/11 06:49:04;;;;;;;27.73;16.70;;;;;;;1.14;100.00;101255.69;5011206;28;20370;-51
2021/11/11 06:51:31;;;;;;;26.73;16.15;;;;;;;1.07;100.00;101261.75;5016308;28;20042;-51
2021/11/11 06:53:57;;;;;;;26.13;15.90;;;;;;;1.04;100.00;101262.59;5005765;28;20054;-51
2021/11/11 06:56:24;;;;;;;25.50;16.77;;;;;;;1.00;100.00;101261.72;5013353;28;20069;-54
2021/11/11 06:58:50;;;;;;;23.08;15.05;;;;;;;0.96;100.00;101266.88;5022030;28;20057;-54
2021/11/11 07:01:21;;;;;;;29.50;16.60;;;;;;;0.89;100.00;101268.59;5013949;28;20071;-54
2021/11/11 07:03:48;;;;;;;26.42;16.17;;;;;;;0.70;100.00;101251.09;5008623;28;20050;-51
2021/11/11 07:06:15;;;;;;;33.03;18.30;;;;;;;0.72;100.00;101280.66;5016386;28;20049;-51
2021/11/11 07:08:41;;;;;;;30.15;17.35;;;;;;;0.82;100.00;101290.28;5012497;28;20041;-52
2021/11/11 07:11:08;;;;;;;34.88;19.73;;;;;;;0.98;100.00;101292.13;5016792;28;20112;-52
2021/11/11 07:13:34;;;;;;;37.08;20.60;;;;;;;1.35;100.00;101295.81;5006648;28;20050;-54
2021/11/11 07:16:02;;;;;;;34.08;18.52;;;;;;;1.37;100.00;101306.28;5012142;28;20045;-52
2021/11/11 07:18:30;;;;;;;40.65;20.92;;;;;;;1.49;100.00;101302.84;5013214;28;20506;-52
2021/11/11 07:20:56;;;;;;;35.17;20.52;;;;;;;1.55;100.00;101297.66;5010101;28;20057;-52
2021/11/11 07:23:28;;;;;;;40.47;21.52;;;;;;;1.46;100.00;101310.66;5006634;28;20447;-53
2021/11/11 07:25:55;;;;;;;37.72;20.20;;;;;;;1.32;100.00;101305.38;5013519;28;20048;-52
2021/11/11 07:28:21;;;;;;;34.55;19.08;;;;;;;1.29;100.00;101313.16;5013104;28;20050;-52
2021/11/11 07:30:48;;;;;;;33.15;18.52;;;;;;;1.26;100.00;101307.97;5011097;28;20172;-51
2021/11/11 07:33:15;;;;;;;32.00;17.85;;;;;;;1.27;100.00;101313.16;5006244;28;20050;-54
2021/11/11 07:35:44;;;;;;;29.92;18.48;;;;;;;1.22;99.41;101321.84;5017447;28;20045;-54
2021/11/11 07:38:13;;;;;;;30.35;18.15;;;;;;;1.17;100.00;101318.31;5011723;28;20056;-51
2021/11/11 07:40:39;;;;;;;33.17;18.88;;;;;;;1.18;100.00;101317.47;5010784;28;20045;-51
2021/11/11 07:43:06;;;;;;;38.17;18.33;;;;;;;1.18;100.00;101317.47;5007353;28;20045;-52
2021/11/11 07:45:33;;;;;;;32.03;17.80;;;;;;;1.15;100.00;101318.31;5016623;28;20053;-50
2021/11/11 07:48:01;;;;;;;33.13;18.90;;;;;;;1.18;100.00;101322.69;5013479;28;20132;-53
2021/11/11 07:50:34;;;;;;;34.15;19.08;;;;;;;1.26;100.00;101326.22;5017766;28;20428;-51
2021/11/11 07:53:02;;;;;;;29.75;17.50;;;;;;;1.29;100.00;101319.25;5007983;28;20270;-51
2021/11/11 07:55:30;;;;;;;27.80;17.17;;;;;;;1.28;100.00;101327.94;5012107;28;20050;-54
2021/11/11 07:57:57;;;;;;;29.20;16.95;;;;;;;1.30;100.00;101328.84;5018456;28;20046;-53
2021/11/11 08:00:24;;;;;;;30.05;17.02;;;;;;;1.30;99.85;101327.97;5032648;28;20041;-52
2021/11/11 08:02:50;;;;;;;26.00;16.83;;;;;;;1.29;100.00;101318.38;5035476;28;20534;-53
2021/11/11 08:05:19;;;;;;;29.70;17.40;;;;;;;1.33;100.00;101322.75;5030856;28;20081;-55
2021/11/11 08:07:47;;;;;;;30.15;16.75;;;;;;;1.29;100.00;101315.78;5033574;28;20488;-52
2021/11/11 08:10:20;;;;;;;33.97;17.27;;;;;;;1.21;99.19;101317.50;5016066;28;20048;-52
2021/11/11 08:12:47;;;;;;;30.77;17.15;;;;;;;1.19;100.00;101314.88;5019009;28;20054;-52
2021/11/11 08:15:15;;;;;;;29.13;17.63;;;;;;;1.19;100.00;101300.94;5031262;28;20052;-51
2021/11/11 08:17:42;;;;;;;35.33;19.67;;;;;;;1.46;100.00;101303.69;5033528;28;20041;-54
2021/11/11 08:20:09;;;;;;;36.40;20.30;;;;;;;1.63;100.00;101307.25;5033108;28;20060;-52
2021/11/11 08:22:36;;;;;;;29.38;18.08;;;;;;;1.73;100.00;101306.41;5031939;28;20049;-54
2021/11/11 08:25:05;;;;;;;30.38;18.42;;;;;;;1.81;100.00;101306.44;5030832;28;20108;-53
2021/11/11 08:27:32;;;;;;;24.45;16.73;;;;;;;1.86;100.00;101304.72;5029027;28;20049;-51
2021/11/11 08:29:58;;;;;;;24.85;15.70;;;;;;;1.78;98.53;101306.44;5030536;28;20061;-53
2021/11/11 08:32:25;;;;;;;26.30;16.98;;;;;;;1.75;98.88;101296.84;5031003;28;20052;-51
2021/11/11 08:34:52;;;;;;;27.25;16.60;;;;;;;1.85;98.99;101296.88;5028953;28;20045;-52
2021/11/11 08:37:19;;;;;;;24.80;16.65;;;;;;;1.72;96.58;101291.63;5034051;28;20574;-52
2021/11/11 08:39:46;;;;;;;25.25;16.50;;;;;;;1.70;96.68;101297.72;5031593;28;20037;-52
2021/11/11 08:42:14;;;;;;;24.25;16.17;;;;;;;1.74;97.60;101302.94;5032056;28;20045;-51
2021/11/11 08:44:42;;;;;;;23.08;15.30;;;;;;;1.76;97.73;101300.31;5030282;28;20530;-53
2021/11/11 08:47:15;;;;;;;28.05;16.45;;;;;;;1.82;97.16;101307.31;5035446;28;20057;-52
2021/11/11 08:49:44;;;;;;;27.95;16.98;;;;;;;1.79;97.36;101308.19;5037312;28;20041;-53
2021/11/11 08:52:12;;;;;;;30.15;17.15;;;;;;;1.81;96.61;101313.41;5031498;28;20152;-52
2021/11/11 08:54:39;;;;;;;29.38;17.52;;;;;;;1.84;96.93;101318.66;5026105;28;20049;-51
2021/11/11 08:57:07;;;;;;;27.85;17.10;;;;;;;1.82;96.16;101318.63;5037785;28;20037;-53
2021/11/11 08:59:41;;;;;;;35.70;19.58;;;;;;;2.00;98.32;101318.69;5033597;28;20594;-53
2021/11/11 09:02:11;;;;;;;30.73;18.85;;;;;;;2.41;100.00;101321.38;5038007;28;20049;-53
2021/11/11 09:04:37;;;;;;;31.83;18.90;;;;;;;2.61;99.66;101323.13;5027098;28;20111;-54
2021/11/11 09:07:04;;;;;;;30.33;18.80;;;;;;;2.79;100.00;101323.13;5038163;28;20128;-52
2021/11/11 09:09:31;;;;;;;27.90;17.02;;;;;;;2.83;95.46;101324.03;5034392;28;20038;-53
2021/11/11 09:11:58;;;;;;;26.15;17.05;;;;;;;2.72;94.23;101317.03;5029914;28;20045;-51
2021/11/11 09:14:24;;;;;;;28.13;17.30;;;;;;;2.77;93.18;101340.56;5028678;28;20463;-53
2021/11/11 09:16:51;;;;;;;28.75;17.02;;;;;;;2.68;93.66;101332.72;5031756;28;20049;-51
2021/11/11 09:19:18;;;;;;;27.52;17.23;;;;;;;2.64;93.52;101331.84;5042374;28;20516;-52
2021/11/11 09:21:45;;;;;;;27.83;17.27;;;;;;;2.67;94.74;101331.00;5034086;28;20072;-52
2021/11/11 09:24:11;;;;;;;30.52;17.23;;;;;;;2.71;93.69;101341.44;5028474;28;20041;-51
2021/11/11 09:26:39;;;;;;;25.88;16.58;;;;;;;2.75;94.15;101331.84;5029806;28;20042;-51
2021/11/11 09:29:07;;;;;;;26.27;17.10;;;;;;;2.75;93.20;101326.63;5044836;28;20044;-58
2021/11/11 09:31:37;;;;;;;27.77;17.23;;;;;;;2.88;93.89;101322.25;5035522;28;20045;-52
2021/11/11 09:34:06;;;;;;;29.70;18.17;;;;;;;2.98;93.19;101322.25;5031321;28;20045;-53
2021/11/11 09:36:32;;;;;;;28.67;17.70;;;;;;;3.02;92.09;101321.34;5040549;28;20055;-52
2021/11/11 09:39:02;;;;;;;25.48;17.00;;;;;;;2.93;91.25;101324.00;5039866;28;20041;-51
2021/11/11 09:41:29;;;;;;;27.47;17.27;;;;;;;2.85;91.77;101323.13;5042591;28;20099;-52
2021/11/11 09:43:56;;;;;;;24.23;16.50;;;;;;;2.77;91.56;101327.50;5028404;28;20471;-51
2021/11/11 09:46:22;;;;;;;28.52;17.85;;;;;;;2.76;92.79;101320.53;5035574;28;20045;-52
2021/11/11 09:48:49;;;;;;;30.80;18.15;;;;;;;3.00;93.55;101333.56;5037467;28;20132;-52
2021/11/11 09:51:21;;;;;;;26.75;17.08;;;;;;;3.12;92.47;101344.03;5045699;28;20057;-52
2021/11/11 09:59:25;;;;;;;26.40;17.58;;;;;;;3.57;90.57;101354.41;5037297;28;20041;-52
2021/11/11 10:01:53;;;;;;;27.10;17.13;;;;;;;3.70;90.22;101354.34;5031246;28;20453;-52
2021/11/11 10:04:20;;;;;;;28.00;17.77;;;;;;;3.68;89.13;101350.88;5030354;28;20142;-54
2021/11/11 10:06:46;;;;;;;29.05;17.75;;;;;;;3.74;88.28;101356.09;5033012;28;20042;-53
2021/11/11 10:09:20;;;;;;;29.30;17.90;;;;;;;3.72;88.16;101351.72;5035994;28;20041;-52
2021/11/11 10:11:52;;;;;;;29.70;18.08;;;;;;;3.65;89.21;101345.63;5028987;28;20060;-53
2021/11/11 10:14:27;;;;;;;25.95;17.90;;;;;;;3.72;90.92;101349.97;5029207;28;20041;-53
2021/11/11 10:17:02;;;;;;;26.60;17.52;;;;;;;3.85;90.42;101349.06;5032413;28;20048;-53
2021/11/11 10:19:31;;;;;;;28.25;17.67;;;;;;;3.96;89.52;101358.59;5035646;28;20052;-52
2021/11/11 10:22:21;;;;;;;29.83;18.27;;;;;;;4.01;89.50;101359.47;5030715;28;20064;-51
2021/11/11 10:24:52;;;;;;;32.10;18.65;;;;;;;3.95;89.27;101343.75;5027661;28;20045;-53
2021/11/11 10:27:36;;;;;;;28.98;18.10;;;;;;;4.12;89.07;101355.91;5035623;28;20505;-51
2021/11/11 10:30:18;;;;;;;29.40;19.30;;;;;;;4.23;89.02;101348.88;5034509;28;20557;-52
2021/11/11 10:32:48;;;;;;;27.10;18.10;;;;;;;4.33;89.43;101341.81;5035933;28;20132;-54
2021/11/11 10:35:22;;;;;;;30.10;19.00;;;;;;;4.43;88.09;101338.22;5030179;28;20506;-52
2021/11/11 10:37:57;;;;;;;27.55;17.83;;;;;;;4.56;88.07;101341.66;5035179;28;20060;-53
2021/11/11 10:40:32;;;;;;;29.33;18.08;;;;;;;4.69;86.86;101331.94;5031245;28;20053;-51
2021/11/11 10:43:03;;;;;;;30.33;18.73;;;;;;;4.70;85.60;101338.94;5031561;28;20053;-52
2021/11/11 10:45:37;;;;;;;27.13;18.23;;;;;;;4.72;85.31;101342.41;5027567;28;20042;-52
2021/11/11 10:48:10;;;;;;;29.80;17.52;;;;;;;4.73;84.43;101338.88;5035085;28;20073;-52
2021/11/11 10:50:43;;;;;;;25.65;18.38;;;;;;;4.73;84.47;101331.00;5037863;28;20053;-52
2021/11/11 10:53:12;;;;;;;29.17;18.40;;;;;;;4.76;84.88;101334.50;5030249;28;20049;-53
2021/11/11 10:55:42;;;;;;;26.08;17.15;;;;;;;4.78;83.99;101335.34;5031822;28;20071;-51
2021/11/11 10:58:14;;;;;;;26.75;17.70;;;;;;;4.88;84.10;101337.00;5035062;28;20518;-54
2021/11/11 11:00:43;;;;;;;26.00;17.25;;;;;;;4.92;82.15;101333.47;5029090;28;20047;-53
2021/11/11 11:03:14;;;;;;;26.88;17.90;;;;;;;4.81;83.14;101329.22;5034857;28;20055;-51
2021/11/11 11:06:02;;;;;;;26.52;17.55;;;;;;;4.70;83.37;101320.56;5026339;28;20057;-54
2021/11/11 11:08:49;;;;;;;26.08;17.60;;;;;;;4.63;84.34;101316.25;5017922;28;20049;-50
2021/11/11 11:11:24;;;;;;;27.20;17.77;;;;;;;4.70;84.62;101318.81;5030638;28;20041;-52
2021/11/11 11:13:53;;;;;;;26.65;17.98;;;;;;;4.75;84.46;101313.50;5027541;28;20210;-53
2021/11/11 11:16:25;;;;;;;23.17;17.52;;;;;;;4.85;85.39;101312.56;5036486;28;20056;-52
2021/11/11 11:18:58;;;;;;;25.90;17.73;;;;;;;4.86;83.65;101298.56;5035877;28;20045;-52
2021/11/11 11:21:37;;;;;;;28.23;18.83;;;;;;;4.88;83.77;101284.50;5028514;28;20424;-52
2021/11/11 11:24:13;;;;;;;24.88;17.52;;;;;;;4.97;84.89;101288.81;5024690;28;20052;-53
2021/11/11 11:26:46;;;;;;;26.20;18.13;;;;;;;5.09;84.80;101288.69;5029700;28;20047;-54
2021/11/11 11:29:36;;;;;;;29.38;18.33;;;;;;;5.12;83.64;101288.66;5033745;28;20048;-53
2021/11/11 11:34:54;;;;;;;26.27;18.15;;;;;;;5.28;83.67;101286.75;5032255;28;20786;-52
2021/11/11 11:37:28;;;;;;;26.38;19.65;;;;;;;5.37;82.77;101280.50;5036697;28;20060;-53
2021/11/11 11:40:01;;;;;;;30.67;20.35;;;;;;;5.48;81.62;101279.50;5026439;28;20151;-52
2021/11/11 11:42:35;;;;;;;29.55;19.90;;;;;;;5.49;81.68;101272.50;5037663;28;20053;-51
2021/11/11 11:45:14;;;;;;;32.30;20.95;;;;;;;5.57;81.18;101275.88;5026919;28;20519;-51
2021/11/11 11:47:51;;;;;;;43.20;23.73;;;;;;;5.68;80.73;101267.84;5038805;28;20046;-52
2021/11/11 11:50:30;;;;;;;36.00;23.23;;;;;;;5.74;80.85;101252.91;5017043;28;20506;-56